Terminal Aerodrome Forecast
Issued by NWS

Home | Current Version | Previous Version | Text Only | Print | Product List | Glossary On
Versions: 1 2 3 4 5 6 7 8 9 10 11 12 13 14 15 16 17 18 19 20
000
FTUS41 KBGM 110917 AAA
TAFITH
TAF AMD
KITH 110917Z 1109/1206 22005KT P6SM BKN050
     FM111700 17009KT P6SM OVC035
      TEMPO 1120/1123 2SM -SN OVC020
     FM112300 17010KT 1SM -SN OVC015
     FM120300 17010KT 2SM -SN OVC012=

USA.gov is the U.S. government's official web portal to all federal, state and local government web resources and services.